Latest Weather Observations for Giles*

IDD60801

Issued at 8:31 pm CST Saturday 25 February 2017 (issued every 30 minutes, with the page automatically refreshed every 10 minutes)

About weather observations | Map of weather stations | Latest weather observations for NT | Other Formats
Station Details ID: 013017 Name: GILES METEOROLOGICAL OFFICE Lat: -25.03 Lon: 128.30 Height: 598.0 m
Data from the previous 72 hours. | See also: Recent months at Giles*

* Giles observations are collected in the South Australia time zone, which includes daylight saving in the summer period. Therefore, Rain since 9am value is with respect to South Australia local time.

Date/Time
CST
Temp
°C
App
Temp
°C
Dew
Point
°C
Rel
Hum
%
Delta-T
°C
Wind Press
QNH
hPa
Press
MSL
hPa
Rain since
9am
mm
Dir  Spd
km/h
Gust
km/h
Spd
kts
Gust
kts
25/08:00pm 31.4 28.3 5.4 19 14.1 NE 11 13 6 7 1015.8 1011.1 0.0
25/07:30pm 32.6 29.1 3.5 16 15.4 ENE 11 19 6 10 1015.6 1010.9 0.0
25/07:00pm 33.7 29.4 3.4 15 16.1 ENE 15 24 8 13 1015.3 1010.6 0.0
25/06:30pm 34.2 31.0 3.1 14 16.5 NE 9 22 5 12 1015.2 1010.5 0.0
25/06:00pm 34.5 30.0 1.9 13 17.0 E 15 24 8 13 1015.2 1010.5 0.0
25/05:30pm 34.5 31.2 2.3 13 16.9 ESE 9 19 5 10 1015.4 1010.7 0.0
25/05:00pm 35.3 32.5 3.0 13 17.2 ENE 7 19 4 10 1015.6 1010.9 0.0
25/04:30pm 35.1 30.9 1.8 12 17.4 SE 13 24 7 13 1015.9 1011.2 0.0
25/04:00pm 35.0 31.3 2.3 13 17.2 ESE 11 24 6 13 1016.2 1011.5 0.0
25/03:30pm 34.8 30.7 2.2 13 17.1 E 13 26 7 14 1016.5 1011.8 0.0
25/03:00pm 35.1 29.9 0.0 11 17.8 S 17 30 9 16 1017.0 1012.4 0.0
25/02:30pm 34.3 30.5 1.7 13 16.9 NE 11 24 6 13 1017.7 1013.0 0.0
25/02:00pm 34.4 30.8 2.7 13 16.7 NE 11 17 6 9 1018.2 1013.5 0.0
25/01:30pm 34.3 30.2 2.5 13 16.7 E 13 22 7 12 1018.6 1014.0 0.0
25/01:00pm 34.0 28.9 0.5 12 17.0 ENE 17 28 9 15 1018.8 1014.2 0.0
25/12:30pm 33.4 28.8 1.5 13 16.4 ENE 15 26 8 14 1019.3 1014.6 0.0
25/12:00pm 32.8 27.5 2.8 15 15.7 ENE 20 30 11 16 1019.7 1015.0 0.0
25/11:30am 32.6 28.1 2.3 14 15.7 ENE 15 24 8 13 1020.0 1015.3 0.0
25/11:00am 31.7 27.0 3.2 16 14.9 NNE 17 26 9 14 1020.4 1015.8 0.0
25/10:30am 30.9 25.6 1.8 15 14.8 ENE 19 28 10 15 1020.6 1016.0 0.0
25/10:00am 29.7 23.9 2.1 17 14.0 NE 22 32 12 17 1020.7 1016.1 0.0
25/09:30am 28.8 22.4 1.2 17 13.7 E 24 35 13 19 1020.6 1016.0 0.0
25/09:00am 27.7 21.8 1.8 18 12.9 E 22 37 12 20 1020.6 1016.0 0.0
25/08:30am 26.0 23.6 4.2 24 11.2 SSE 6 11 3 6 1020.6 1016.0 0.0
25/08:00am 24.5 21.9 3.0 24 10.7 E 6 13 3 7 1020.5 1015.9 0.0
25/07:30am 20.8 17.6 2.8 30 8.7 WSW 9 11 5 6 1020.5 1015.9 0.0
25/07:00am 20.7 17.1 3.0 31 8.6 ESE 11 19 6 10 1020.1 1015.5 0.0
25/06:30am 20.6 15.4 2.2 29 8.8 ESE 19 24 10 13 1019.6 1014.9 0.0
25/06:00am 21.4 15.9 1.6 27 9.4 E 20 26 11 14 1019.4 1014.7 0.0
25/05:30am 21.5 15.9 1.5 26 9.5 ESE 20 26 11 14 1019.3 1014.6 0.0
25/05:00am 21.5 16.2 1.8 27 9.4 ESE 19 24 10 13 1019.4 1014.7 0.0
25/04:30am 21.9 16.6 1.9 26 9.6 ESE 19 22 10 12 1019.5 1014.8 0.0
25/04:00am 22.5 17.2 1.6 25 10.0 ESE 19 22 10 12 1019.4 1014.7 0.0
25/03:30am 22.7 17.5 2.4 26 9.9 ESE 19 24 10 13 1019.6 1014.9 0.0
25/03:00am 22.9 18.2 3.0 27 9.8 ESE 17 20 9 11 1019.7 1015.0 0.0
25/02:30am 23.8 19.1 3.4 26 10.2 ESE 17 22 9 12 1019.9 1015.2 0.0
25/02:00am 24.4 19.4 3.5 25 10.5 ESE 19 26 10 14 1020.1 1015.5 0.0
25/01:30am 23.7 19.7 4.7 29 9.7 ESE 15 17 8 9 1020.4 1015.8 0.0
25/01:00am 25.1 21.0 4.2 26 10.7 SE 15 20 8 11 1020.5 1015.9 0.0
25/12:30am 25.6 22.8 5.0 26 10.7 E 9 13 5 7 1020.7 1016.1 0.0
25/12:00am 26.5 22.8 4.5 24 11.4 ESE 13 15 7 8 1020.6 1016.0 0.0
 
Date/Time
CST
Temp
°C
App
Temp
°C
Dew
Point
°C
Rel
Hum
%
Delta-T
°C
Wind Press
QNH
hPa
Press
MSL
hPa
Rain since
9am
mm
Dir  Spd
km/h
Gust
km/h
Spd
kts
Gust
kts
24/11:30pm 27.5 23.0 4.2 22 12.1 SE 17 24 9 13 1020.5 1015.9 0.0
24/11:00pm 28.2 23.1 3.9 21 12.6 SE 20 28 11 15 1020.6 1016.0 0.0
24/10:30pm 28.9 23.3 3.6 20 13.1 SSE 22 30 12 16 1020.2 1015.6 0.0
24/10:00pm 29.1 23.8 3.0 19 13.4 SSE 20 28 11 15 1019.9 1015.2 0.0
24/09:30pm 29.6 23.9 2.6 17 13.8 SSE 22 32 12 17 1019.5 1014.8 0.0
24/09:00pm 30.2 24.7 2.1 16 14.3 SSE 20 26 11 14 1018.9 1014.3 0.0
24/08:30pm 30.9 25.5 1.4 15 14.9 SSE 19 30 10 16 1018.5 1013.8 0.0
24/08:00pm 31.1 26.9 1.9 15 14.9 SE 13 19 7 10 1018.0 1013.3 0.0
24/07:30pm 32.7 27.6 1.0 13 16.1 SE 17 24 9 13 1017.9 1013.2 0.0
24/07:00pm 33.9 28.2 0.7 12 16.9 ESE 20 30 11 16 1017.8 1013.1 0.0
24/06:30pm 34.9 29.0 -0.6 10 17.8 SE 20 28 11 15 1017.7 1013.0 0.0
24/06:00pm 35.4 29.9 0.4 11 17.9 ESE 19 32 10 17 1017.6 1012.9 0.0
24/05:30pm 35.7 29.3 -1.6 9 18.5 SE 22 32 12 17 1017.5 1012.8 0.0
24/05:00pm 35.6 29.8 -0.4 10 18.2 SE 20 33 11 18 1017.6 1012.9 0.0
24/04:30pm 35.6 29.8 0.0 10 18.1 E 20 30 11 16 1017.8 1013.1 0.0
24/04:00pm 35.8 30.0 0.1 10 18.2 ESE 20 35 11 19 1017.9 1013.2 0.0
24/03:30pm 36.0 30.8 -0.2 10 18.4 SE 17 32 9 17 1018.5 1013.8 0.0
24/03:00pm 35.1 30.4 0.8 11 17.6 ESE 15 32 8 17 1018.9 1014.3 0.0
24/02:30pm 35.0 28.5 0.6 11 17.6 ESE 24 41 13 22 1019.5 1014.8 0.0
24/02:00pm 35.0 29.8 2.6 13 17.1 E 19 35 10 19 1019.8 1015.1 0.0
24/01:30pm 34.8 29.1 2.9 13 16.9 ENE 22 33 12 18 1020.3 1015.7 0.0
24/01:00pm 34.3 28.9 4.3 15 16.2 E 22 33 12 18 1020.6 1016.0 0.0
24/12:30pm 34.2 28.3 4.1 15 16.2 E 24 35 13 19 1021.0 1016.3 0.0
24/12:00pm 32.9 27.0 3.7 16 15.5 E 24 39 13 21 1021.3 1016.6 0.0
24/11:30am 31.8 25.6 4.4 17 14.6 E 26 44 14 24 1021.8 1017.2 0.0
24/11:00am 31.4 25.3 5.0 19 14.2 E 26 44 14 24 1022.0 1017.4 0.0
24/10:30am 30.3 25.0 5.0 20 13.5 ENE 22 33 12 18 1022.2 1017.6 0.0
24/10:00am 30.0 24.5 5.7 21 13.1 ENE 24 33 13 18 1022.4 1017.8 0.0
24/09:30am 28.7 21.9 5.1 22 12.5 E 30 41 16 22 1022.2 1017.6 0.0
24/09:00am 28.1 20.4 5.3 23 12.1 E 35 48 19 26 1021.9 1017.3 0.0
24/08:41am 27.5 21.2 5.7 25 11.6 E 28 46 15 25 1021.8 1017.2 0.0
24/08:30am 26.7 21.1 5.5 25 11.2 E 24 37 13 20 1021.7 1017.1 0.0
24/08:00am 24.1 20.4 6.5 32 9.3 ESE 15 24 8 13 1021.6 1017.0 0.2
24/07:30am 22.0 18.8 7.0 38 7.9 SE 13 20 7 11 1021.5 1016.8 -
24/07:00am 20.8 17.1 6.3 39 7.5 SE 15 19 8 10 1021.2 1016.5 -
24/06:30am 21.7 16.9 5.8 35 8.2 ESE 20 26 11 14 1020.7 1016.1 -
24/06:00am 22.1 17.3 5.6 34 8.5 ESE 20 28 11 15 1020.3 1015.7 -
24/05:30am 22.6 17.8 5.5 33 8.8 ESE 20 26 11 14 1020.0 1015.3 -
24/05:00am 23.2 18.0 5.4 31 9.2 ESE 22 30 12 16 1019.7 1015.0 -
24/04:30am 24.0 17.2 5.3 30 9.7 ESE 30 39 16 21 1019.6 1014.9 -
24/04:00am 24.3 17.9 5.2 29 9.9 ESE 28 37 15 20 1019.6 1014.9 -
24/03:30am 24.1 18.5 5.4 30 9.7 ESE 24 35 13 19 1019.5 1014.8 -
24/03:00am 24.4 18.8 5.4 29 9.9 ESE 24 32 13 17 1019.6 1014.9 -
24/02:30am 24.8 19.2 5.5 29 10.1 ESE 24 32 13 17 1019.6 1014.9 -
24/02:00am 24.9 20.1 5.6 29 10.1 ESE 20 30 11 16 1019.8 1015.1 0.0
24/01:30am 25.2 20.6 5.8 28 10.2 ESE 19 24 10 13 1019.8 1015.1 -
24/01:00am 25.8 21.0 5.7 27 10.6 ESE 20 28 11 15 1019.9 1015.2 -
24/12:30am 25.9 21.8 6.2 28 10.5 ESE 17 20 9 11 1020.0 1015.3 -
24/12:00am 26.4 22.7 6.1 27 10.8 ESE 15 19 8 10 1020.1 1015.5 -
 
Date/Time
CST
Temp
°C
App
Temp
°C
Dew
Point
°C
Rel
Hum
%
Delta-T
°C
Wind Press
QNH
hPa
Press
MSL
hPa
Rain since
9am
mm
Dir  Spd
km/h
Gust
km/h
Spd
kts
Gust
kts
23/11:30pm 27.5 23.3 5.7 25 11.6 SE 17 24 9 13 1020.1 1015.5 -
23/11:00pm 28.3 23.1 5.4 23 12.2 SE 22 32 12 17 1019.9 1015.2 -
23/10:30pm 29.1 22.7 5.0 21 12.8 SE 28 39 15 21 1019.6 1014.9 -
23/10:00pm 29.7 24.3 4.6 20 13.3 SE 22 37 12 20 1019.3 1014.6 -
23/09:30pm 30.0 25.1 4.2 19 13.6 SE 19 28 10 15 1018.6 1014.0 -
23/09:00pm 30.2 26.0 1.4 15 14.5 E 13 17 7 9 1018.0 1013.3 -
23/08:30pm 30.8 27.1 2.4 16 14.6 E 11 15 6 8 1017.7 1013.0 -
23/08:00pm 31.3 27.5 2.0 15 15.0 ESE 11 13 6 7 1017.4 1012.7 0.0
23/07:30pm 33.1 29.1 0.8 13 16.4 SE 11 17 6 9 1016.9 1012.2 -
23/07:00pm 34.8 31.0 -0.4 10 17.7 ESE 9 15 5 8 1016.6 1011.9 -
23/06:30pm 35.3 31.9 1.8 12 17.5 SE 9 17 5 9 1016.4 1011.7 -
23/06:00pm 35.5 31.2 1.1 11 17.8 NE 13 20 7 11 1016.3 1011.6 -
23/05:30pm 35.4 31.1 0.9 11 17.8 SE 13 20 7 11 1016.2 1011.5 -
23/05:00pm 35.9 30.7 0.0 10 18.3 ENE 17 24 9 13 1016.2 1011.5 -
23/04:30pm 36.3 31.0 -0.7 9 18.7 SE 17 28 9 15 1016.2 1011.5 -
23/04:00pm 35.9 30.1 -1.4 9 18.6 SE 19 26 10 14 1016.4 1011.7 -
23/03:30pm 35.6 31.7 0.9 11 17.9 NNE 11 19 6 10 1016.7 1012.0 -
23/03:00pm 35.6 31.2 0.1 10 18.1 ENE 13 20 7 11 1017.0 1012.4 -
23/02:30pm 35.4 29.9 -2.0 9 18.4 NE 17 28 9 15 1017.4 1012.7 -
23/02:00pm 35.2 29.8 -1.6 9 18.2 ENE 17 26 9 14 1017.6 1012.9 0.2
23/01:30pm 34.0 29.2 0.1 11 17.1 E 15 30 8 16 1017.8 1013.1 -
23/01:00pm 34.5 29.0 0.6 11 17.3 E 19 32 10 17 1018.1 1013.4 -
23/12:30pm 33.7 28.3 2.2 13 16.4 E 20 32 11 17 1018.4 1013.7 -
23/12:00pm 32.5 26.2 1.7 14 15.8 ESE 24 41 13 22 1018.8 1014.2 -
23/11:30am 30.9 25.2 2.6 16 14.6 E 22 35 12 19 1019.1 1014.4 -
23/11:00am 30.2 23.3 2.5 17 14.2 ESE 28 28 15 15 1019.3 1014.6 -
23/10:00am 28.4 22.3 2.9 19 13.0 ESE 24 35 13 19 1019.7 1015.0 0.0
23/09:30am 27.7 22.1 3.2 20 12.5 ESE 22 33 12 18 1019.5 1014.8 0.0
23/09:00am 25.1 19.0 2.5 23 11.2 ESE 24 33 13 18 1019.3 1014.6 0.0
23/08:30am 24.2 18.1 2.5 24 10.7 ESE 24 32 13 17 1018.9 1014.3 0.0
23/08:00am 22.0 17.8 3.7 30 9.1 ESE 15 20 8 11 1018.8 1014.2 0.0
23/07:30am 20.4 16.2 4.0 34 8.1 SE 15 20 8 11 1018.6 1014.0 0.0
23/07:00am 18.6 15.0 5.2 41 6.7 SE 13 15 7 8 1018.3 1013.6 0.0
23/06:30am 18.8 15.6 5.2 40 6.8 SE 11 15 6 8 1018.1 1013.4 0.0
23/06:00am 19.2 15.7 5.3 40 7.0 SE 13 15 7 8 1017.8 1013.1 0.0
23/05:30am 19.7 17.0 5.7 40 7.1 SE 9 11 5 6 1017.6 1012.9 0.0
23/05:00am 20.4 16.9 5.5 37 7.6 SE 13 17 7 9 1017.3 1012.6 0.0
23/04:30am 20.5 16.4 6.1 39 7.4 SE 17 20 9 11 1017.0 1012.4 0.0
23/04:00am 20.3 17.1 6.9 41 7.0 SE 13 15 7 8 1016.8 1012.1 0.0
23/03:30am 20.9 17.7 6.7 39 7.4 SE 13 17 7 9 1016.6 1011.9 0.0
23/03:00am 21.7 18.1 6.6 37 7.9 SE 15 17 8 9 1016.6 1011.9 0.0
23/02:30am 22.5 18.8 6.5 35 8.4 SE 15 17 8 9 1016.7 1012.0 0.0
23/02:00am 23.5 19.4 6.2 32 9.1 SE 17 20 9 11 1016.9 1012.2 0.0
23/01:30am 24.1 20.0 6.0 31 9.5 SE 17 20 9 11 1016.9 1012.2 0.0
23/01:00am 24.7 20.5 5.9 30 9.9 SE 17 24 9 13 1017.3 1012.6 0.0
23/12:30am 25.0 20.2 5.5 28 10.2 SSE 20 28 11 15 1017.1 1012.5 0.0
23/12:00am 25.6 20.8 5.4 27 10.6 SSE 20 30 11 16 1017.4 1012.7 0.0
 
Date/Time
CST
Temp
°C
App
Temp
°C
Dew
Point
°C
Rel
Hum
%
Delta-T
°C
Wind Press
QNH
hPa
Press
MSL
hPa
Rain since
9am
mm
Dir  Spd
km/h
Gust
km/h
Spd
kts
Gust
kts
22/11:30pm 26.0 21.2 5.5 27 10.8 SSE 20 28 11 15 1017.4 1012.7 0.0
22/11:00pm 26.6 22.0 5.4 25 11.2 SSE 19 30 10 16 1017.3 1012.6 0.0
22/10:30pm 27.0 22.4 5.5 25 11.4 SSE 19 24 10 13 1017.0 1012.4 0.0
22/10:00pm 27.7 22.9 4.9 23 12.0 SSE 19 24 10 13 1016.7 1012.0 0.0
22/09:30pm 28.2 23.5 5.2 23 12.2 SSE 19 24 10 13 1016.4 1011.7 0.0
22/09:00pm 29.1 24.2 5.1 21 12.8 S 20 28 11 15 1015.9 1011.2 0.0
22/08:30pm 30.0 24.3 4.9 20 13.4 S 24 37 13 20 1015.3 1010.6 0.0
22/08:00pm 31.0 25.2 4.6 19 14.1 S 24 33 13 18 1014.7 1010.0 0.0

Other Formats:

Comma delimited format used in spreadsheet applications
http://www.bom.gov.au/fwo/IDD60801/IDD60801.94461.axf

JavaScript Object Notation format (JSON) in row-major order
http://www.bom.gov.au/fwo/IDD60801/IDD60801.94461.json